.
WxDataArchive / Data Records for 2016-03-13
2016-03-12 March 2016 2016-03-14

Data Records for Sunday, 13 March 2016

Time	Temp	Chill	HIndex	Humid	Dewpt	 Wind 	HiWind	WindDir	Rain 	Barom
-----	----	-----	------	-----	-----	------	------	-------	-----	-----
00:00	51.4	51.4	51.4	77	44.4	0	1	90	0.00	29.981 
00:05	51.4	51.4	51.4	77	44.4	1	3	90	0.00	29.981 
00:10	51.6	51.6	51.6	75	43.9	1	3	90	0.00	29.981 
00:15	51.6	51.6	51.6	75	43.9	0	1	90	0.00	29.971 
00:20	51.6	51.6	51.6	75	43.9	0	3	90	0.00	29.971 
00:25	51.4	51.4	51.4	74	43.4	2	5	90	0.00	29.971 
00:30	51.4	51.4	51.4	74	43.4	1	3	90	0.00	29.970 
00:35	51.3	51.3	51.3	75	43.6	2	3	90	0.00	29.970 
00:40	51.0	51.0	51.0	75	43.4	2	4	90	0.00	29.970 
00:45	50.7	50.7	50.7	78	44.1	1	3	90	0.00	29.968 
00:50	50.4	50.4	50.4	79	44.1	1	3	90	0.00	29.968 
00:55	50.1	50.1	50.1	80	44.2	1	3	90	0.00	29.968 
01:00	49.9	49.9	49.9	81	44.3	0	2	90	0.00	29.969 
01:05	49.8	49.8	49.8	82	44.5	1	2	90	0.00	29.969 
01:10	49.6	49.6	49.6	83	44.7	1	4	90	0.00	29.969 
01:15	49.5	49.5	49.5	84	44.9	2	4	90	0.00	29.968 
01:20	49.5	49.5	49.5	85	45.2	1	3	90	0.00	29.968 
01:25	49.4	49.4	49.4	86	45.4	1	4	90	0.00	29.968 
01:30	49.2	49.2	49.2	87	45.5	1	3	90	0.00	29.968 
01:35	49.1	49.1	49.1	87	45.4	1	4	90	0.00	29.968 
01:40	48.9	48.9	48.9	88	45.5	2	4	90	0.00	29.968 
01:45	48.9	48.9	48.9	88	45.5	2	4	90	0.00	29.967 
01:50	48.8	48.8	48.8	88	45.4	2	5	90	0.00	29.967 
01:55	48.6	48.6	48.6	88	45.2	2	6	90	0.00	29.967 
03:00	48.5	48.5	48.5	88	45.1	2	6	90	0.00	29.963 
03:05	48.2	48.2	48.2	88	44.8	3	6	112	0.00	29.963 
03:10	48.0	48.0	48.0	89	44.9	1	4	90	0.01	29.963 
03:15	47.9	47.9	47.9	89	44.8	2	6	90	0.00	29.956 
03:20	47.9	47.9	47.9	90	45.1	1	4	90	0.00	29.956 
03:25	47.9	47.9	47.9	90	45.1	3	7	112	0.01	29.956 
03:30	47.9	47.9	47.9	91	45.4	2	6	112	0.00	29.954 
03:35	47.7	47.7	47.7	91	45.2	2	5	112	0.00	29.954 
03:40	47.7	47.7	47.7	91	45.2	2	7	90	0.00	29.954 
03:45	47.7	47.7	47.7	91	45.2	2	6	90	0.01	29.952 
03:50	47.6	47.6	47.6	92	45.4	2	6	112	0.00	29.952 
03:55	47.6	47.6	47.6	92	45.4	3	9	112	0.01	29.952 
04:00	47.4	47.4	47.4	92	45.2	2	7	112	0.00	29.944 
04:05	47.4	47.4	47.4	92	45.2	2	6	112	0.00	29.944 
04:10	47.3	47.3	47.3	92	45.1	2	6	112	0.00	29.944 
04:15	47.1	47.1	47.1	93	45.2	2	6	112	0.01	29.936 
04:20	47.0	47.0	47.0	93	45.1	2	5	112	0.00	29.936 
04:25	47.0	47.0	47.0	93	45.1	1	5	68	0.00	29.936 
04:30	47.0	47.0	47.0	93	45.1	2	7	90	0.00	29.922 
04:35	47.0	47.0	47.0	93	45.1	1	5	90	0.01	29.922 
04:40	47.0	47.0	47.0	93	45.1	2	5	90	0.00	29.922 
04:45	47.0	47.0	47.0	94	45.4	1	6	90	0.01	29.916 
04:50	47.0	47.0	47.0	94	45.4	2	8	112	0.00	29.916 
04:55	47.0	47.0	47.0	94	45.4	3	6	112	0.01	29.916 
05:00	47.0	47.0	47.0	94	45.4	2	5	112	0.01	29.911 
05:05	47.0	47.0	47.0	94	45.4	2	7	90	0.00	29.911 
05:10	47.0	47.0	47.0	94	45.4	2	7	112	0.00	29.911 
05:15	47.0	47.0	47.0	94	45.4	3	6	90	0.01	29.906 
05:20	47.1	47.1	47.1	94	45.5	3	7	112	0.00	29.906 
05:25	47.1	47.1	47.1	95	45.7	3	7	112	0.01	29.906 
05:30	47.3	45.8	47.3	95	45.9	4	9	90	0.00	29.897 
05:35	47.4	47.4	47.4	95	46.0	3	9	112	0.01	29.897 
05:40	47.4	47.4	47.4	95	46.0	3	6	112	0.00	29.897 
05:45	47.6	47.6	47.6	95	46.2	2	5	112	0.00	29.894 
05:50	47.7	47.7	47.7	95	46.3	3	7	112	0.00	29.894 
05:55	47.7	47.7	47.7	95	46.3	2	5	112	0.00	29.894 
06:00	48.0	46.6	48.0	95	46.6	4	9	112	0.00	29.893 
06:05	48.0	45.9	48.0	95	46.6	5	10	112	0.00	29.893 
06:10	48.0	46.6	48.0	95	46.6	4	10	112	0.00	29.893 
06:15	48.0	45.9	48.0	95	46.6	5	11	90	0.00	29.891 
06:20	47.9	47.9	47.9	95	46.5	3	6	90	0.00	29.891 
06:25	47.9	46.4	47.9	95	46.5	4	8	90	0.01	29.891 
06:30	47.7	46.2	47.7	95	46.3	4	7	90	0.00	29.892 
06:35	47.7	46.2	47.7	95	46.3	4	11	90	0.00	29.892 
06:40	47.7	46.2	47.7	95	46.3	4	12	90	0.00	29.892 
06:45	47.6	47.6	47.6	95	46.2	3	6	112	0.00	29.892 
06:50	47.6	46.1	47.6	95	46.2	4	11	90	0.00	29.892 
06:55	47.6	46.1	47.6	95	46.2	4	9	90	0.01	29.892 
07:00	47.4	47.4	47.4	95	46.0	3	6	90	0.00	29.890 
07:05	47.4	45.9	47.4	94	45.8	4	9	90	0.00	29.890 
07:10	47.3	45.8	47.3	94	45.7	4	10	90	0.00	29.890 
07:15	47.3	45.8	47.3	94	45.7	4	11	112	0.00	29.884 
07:20	47.1	45.5	47.1	94	45.5	4	12	112	0.01	29.884 
07:25	47.1	47.1	47.1	94	45.5	3	6	90	0.00	29.884 
07:30	47.1	45.5	47.1	94	45.5	4	9	90	0.00	29.889 
07:35	47.0	45.4	47.0	93	45.1	4	9	90	0.00	29.889 
07:40	47.0	44.7	47.0	93	45.1	5	11	90	0.01	29.889 
07:45	46.8	44.5	46.8	93	44.9	5	10	90	0.00	29.885 
07:50	47.0	47.0	47.0	93	45.1	3	9	112	0.00	29.885 
07:55	47.0	45.4	47.0	93	45.1	4	10	112	0.00	29.885 
08:00	46.8	44.5	46.8	93	44.9	5	11	112	0.01	29.881 
08:05	46.8	45.2	46.8	93	44.9	4	7	112	0.00	29.881 
08:10	46.8	45.2	46.8	93	44.9	4	10	112	0.01	29.881 
08:15	46.8	45.2	46.8	93	44.9	4	9	112	0.00	29.878 
08:20	46.8	45.2	46.8	93	44.9	4	10	112	0.01	29.878 
08:25	46.7	45.1	46.7	93	44.8	4	11	112	0.00	29.878 
08:30	46.7	45.1	46.7	93	44.8	4	9	112	0.00	29.879 
08:35	46.7	44.3	46.7	93	44.8	5	13	112	0.00	29.879 
08:40	46.5	44.1	46.5	93	44.6	5	13	90	0.01	29.879 
08:45	46.5	44.8	46.5	93	44.6	4	7	112	0.00	29.881 
08:50	46.5	44.1	46.5	93	44.6	5	10	90	0.01	29.881 
08:55	46.4	44.0	46.4	93	44.5	5	10	90	0.01	29.881 
09:00	46.4	46.4	46.4	93	44.5	3	7	90	0.01	29.881 
09:05	46.4	44.7	46.4	93	44.5	4	10	90	0.02	29.881 
09:10	46.2	43.8	46.2	93	44.3	5	9	90	0.01	29.881 
09:15	46.2	43.8	46.2	93	44.3	5	15	112	0.02	29.880 
09:20	46.2	43.8	46.2	93	44.3	5	12	90	0.00	29.880 
09:25	46.2	43.8	46.2	94	44.6	5	15	112	0.01	29.880 
09:30	46.2	43.8	46.2	94	44.6	5	13	112	0.00	29.878 
09:35	46.2	46.2	46.2	94	44.6	3	8	112	0.00	29.878 
09:40	46.2	43.8	46.2	94	44.6	5	11	112	0.01	29.878 
09:45	46.2	43.8	46.2	92	44.0	5	11	90	0.02	29.876 
09:50	46.1	46.1	46.1	94	44.5	3	9	90	0.00	29.876 
09:55	46.1	44.4	46.1	94	44.5	4	11	112	0.01	29.876 
10:00	46.1	43.6	46.1	94	44.5	5	13	112	0.01	29.872 
10:05	46.0	44.2	46.0	94	44.4	4	10	90	0.01	29.872 
10:10	46.0	46.0	46.0	94	44.4	3	8	90	0.03	29.872 
10:15	45.8	45.8	45.8	94	44.2	3	7	90	0.02	29.869 
10:20	45.8	45.8	45.8	94	44.2	3	7	112	0.01	29.869 
10:25	45.8	45.8	45.8	94	44.2	3	10	90	0.01	29.869 
10:30	46.0	46.0	46.0	94	44.4	3	9	112	0.00	29.865 
10:35	46.0	44.2	46.0	94	44.4	4	11	90	0.00	29.865 
10:40	46.0	44.2	46.0	94	44.4	4	8	90	0.01	29.865 
10:45	46.0	44.2	46.0	94	44.4	4	7	90	0.00	29.860 
10:50	46.0	46.0	46.0	94	44.4	3	7	112	0.00	29.860 
10:55	46.1	44.4	46.1	94	44.5	4	11	112	0.00	29.860 
11:00	46.1	43.6	46.1	94	44.5	5	12	112	0.00	29.847 
11:05	46.2	43.8	46.2	94	44.6	5	11	112	0.00	29.847 
11:10	46.4	44.7	46.4	94	44.8	4	9	90	0.00	29.847 
11:15	46.5	44.8	46.5	94	44.9	4	9	90	0.00	29.847 
11:20	46.5	44.8	46.5	94	44.9	4	11	90	0.00	29.847 
11:25	46.7	46.7	46.7	94	45.1	3	9	90	0.00	29.847 
11:30	46.8	46.8	46.8	94	45.2	3	9	112	0.01	29.842 
11:35	46.8	46.8	46.8	93	44.9	3	10	112	0.00	29.842 
11:40	46.8	45.2	46.8	93	44.9	4	9	90	0.00	29.842 
11:45	46.8	45.2	46.8	93	44.9	4	10	112	0.01	29.836 
11:50	46.7	44.3	46.7	92	44.5	5	11	90	0.00	29.836 
11:55	46.5	43.5	46.5	92	44.3	6	13	90	0.00	29.836 
12:00	46.4	44.0	46.4	91	43.9	5	12	90	0.00	29.836 
12:05	46.4	44.7	46.4	91	43.9	4	10	112	0.00	29.836 
12:10	46.4	44.7	46.4	90	43.6	4	15	90	0.00	29.836 
12:15	46.2	44.5	46.2	90	43.4	4	10	112	0.00	29.833 
12:20	46.4	46.4	46.4	91	43.9	3	7	112	0.01	29.833 
12:25	46.4	44.0	46.4	90	43.6	5	11	90	0.00	29.833 
12:30	46.4	44.0	46.4	90	43.6	5	9	90	0.00	29.822 
12:35	46.2	44.5	46.2	90	43.4	4	10	90	0.00	29.822 
12:40	46.2	44.5	46.2	90	43.4	4	10	112	0.00	29.822 
12:45	46.2	44.5	46.2	90	43.4	4	10	90	0.00	29.819 
12:50	46.4	46.4	46.4	91	43.9	3	7	90	0.01	29.819 
12:55	46.2	43.8	46.2	90	43.4	5	11	90	0.00	29.819 
13:00	46.4	46.4	46.4	90	43.6	3	6	90	0.00	29.812 
13:05	46.5	46.5	46.5	90	43.7	3	9	90	0.00	29.812 
13:10	46.5	44.8	46.5	90	43.7	4	10	112	0.00	29.812 
13:15	46.4	44.0	46.4	90	43.6	5	12	112	0.00	29.804 
13:20	46.5	46.5	46.5	91	44.0	3	6	112	0.01	29.804 
13:25	46.4	44.7	46.4	91	43.9	4	10	90	0.00	29.804 
13:30	46.5	46.5	46.5	91	44.0	3	6	112	0.00	29.803 
13:35	46.7	46.7	46.7	91	44.2	3	6	112	0.00	29.803 
13:40	46.5	44.8	46.5	91	44.0	4	9	112	0.01	29.803 
13:45	46.4	44.0	46.4	91	43.9	5	11	112	0.00	29.794 
13:50	46.5	44.8	46.5	91	44.0	4	13	112	0.00	29.794 
13:55	46.5	44.8	46.5	92	44.3	4	10	90	0.00	29.794 
14:00	46.7	46.7	46.7	92	44.5	3	6	90	0.01	29.790 
14:05	46.8	46.8	46.8	92	44.6	2	8	90	0.00	29.790 
14:10	47.0	47.0	47.0	92	44.8	2	5	112	0.00	29.790 
14:15	47.0	45.4	47.0	92	44.8	4	11	90	0.00	29.784 
14:20	47.0	45.4	47.0	92	44.8	4	6	90	0.00	29.784 
14:25	47.1	47.1	47.1	92	44.9	3	9	90	0.00	29.784 
14:30	47.1	45.5	47.1	92	44.9	4	10	112	0.00	29.778 
14:35	47.1	47.1	47.1	92	44.9	3	7	90	0.01	29.778 
14:40	47.1	47.1	47.1	92	44.9	2	6	112	0.00	29.778 
14:45	47.0	44.7	47.0	92	44.8	5	9	90	0.00	29.772 
14:50	47.0	47.0	47.0	92	44.8	3	8	90	0.01	29.772 
14:55	47.0	47.0	47.0	92	44.8	3	6	112	0.00	29.772 
15:00	47.0	47.0	47.0	92	44.8	3	7	90	0.01	29.762 
15:05	47.0	45.4	47.0	92	44.8	4	9	90	0.01	29.762 
15:10	47.0	45.4	47.0	93	45.1	4	9	90	0.00	29.762 
15:15	47.1	47.1	47.1	93	45.2	2	7	90	0.00	29.758 
15:20	47.3	47.3	47.3	93	45.4	3	7	112	0.01	29.758 
15:25	47.4	47.4	47.4	93	45.5	2	5	90	0.00	29.758 
15:30	47.7	47.7	47.7	93	45.8	1	6	112	0.00	29.753 
15:35	47.7	47.7	47.7	93	45.8	1	5	90	0.01	29.753 
15:40	47.9	47.9	47.9	93	46.0	2	4	68	0.00	29.753 
15:45	47.9	47.9	47.9	94	46.3	1	5	90	0.00	29.748 
15:50	47.9	47.9	47.9	94	46.3	3	6	90	0.00	29.748 
15:55	47.9	46.4	47.9	94	46.3	4	12	112	0.00	29.748 
16:00	47.9	47.9	47.9	94	46.3	2	5	112	0.00	29.744 
16:05	47.9	46.4	47.9	94	46.3	4	6	90	0.00	29.744 
16:10	47.9	47.9	47.9	94	46.3	3	6	90	0.01	29.744 
16:15	47.9	47.9	47.9	94	46.3	3	6	112	0.00	29.743 
16:20	48.0	48.0	48.0	94	46.4	2	6	112	0.00	29.743 
16:25	48.0	48.0	48.0	94	46.4	2	5	112	0.00	29.743 
16:30	48.2	48.2	48.2	94	46.6	2	6	112	0.01	29.743 
16:35	48.2	48.2	48.2	94	46.6	3	6	90	0.00	29.743 
16:40	48.2	46.8	48.2	94	46.6	4	9	90	0.00	29.743 
16:45	48.2	48.2	48.2	94	46.6	3	6	90	0.00	29.739 
16:50	48.3	48.3	48.3	94	46.7	2	5	112	0.01	29.739 
16:55	48.3	48.3	48.3	94	46.7	2	5	112	0.00	29.739 
17:00	48.3	48.3	48.3	94	46.7	2	5	112	0.00	29.733 
17:05	48.3	48.3	48.3	94	46.7	2	5	112	0.00	29.733 
17:10	48.2	48.2	48.2	94	46.6	3	9	90	0.01	29.733 
17:15	48.3	48.3	48.3	94	46.7	2	6	112	0.00	29.726 
17:20	48.3	48.3	48.3	95	46.9	2	5	90	0.00	29.726 
17:25	48.3	48.3	48.3	95	46.9	2	6	112	0.01	29.726 
17:30	48.3	48.3	48.3	95	46.9	1	5	112	0.00	29.724 
17:35	48.3	48.3	48.3	95	46.9	2	7	112	0.00	29.724 
17:40	48.3	48.3	48.3	95	46.9	1	3	112	0.00	29.724 
17:45	48.2	48.2	48.2	95	46.8	2	6	112	0.01	29.717 
17:50	48.2	48.2	48.2	95	46.8	2	5	112	0.00	29.717 
17:55	48.2	48.2	48.2	95	46.8	2	5	112	0.00	29.717 
18:00	48.3	48.3	48.3	95	46.9	1	4	112	0.00	29.718 
18:05	48.3	48.3	48.3	95	46.9	1	3	112	0.00	29.718 
18:10	48.3	48.3	48.3	95	46.9	2	5	112	0.00	29.718 
18:15	48.3	48.3	48.3	95	46.9	3	7	112	0.00	29.713 
18:20	48.2	48.2	48.2	95	46.8	2	5	90	0.00	29.713 
18:25	48.3	48.3	48.3	95	46.9	3	6	90	0.00	29.713 
18:30	48.3	48.3	48.3	95	46.9	3	6	90	0.00	29.711 
18:35	48.3	48.3	48.3	95	46.9	2	4	90	0.00	29.711 
18:40	48.3	48.3	48.3	95	46.9	2	5	90	0.00	29.711 
18:45	48.5	48.5	48.5	95	47.1	2	6	112	0.00	29.707 
18:50	48.5	48.5	48.5	95	47.1	2	5	112	0.00	29.707 
18:55	48.5	48.5	48.5	95	47.1	2	5	90	0.00	29.707 
19:00	48.6	48.6	48.6	95	47.2	1	3	90	0.00	29.703 
19:05	48.6	48.6	48.6	95	47.2	3	6	90	0.00	29.703 
19:10	48.6	48.6	48.6	95	47.2	2	4	90	0.00	29.703 
19:15	48.6	48.6	48.6	95	47.2	2	5	90	0.00	29.704 
19:20	48.8	48.8	48.8	96	47.7	2	5	90	0.00	29.704 
19:25	48.8	48.8	48.8	96	47.7	2	6	90	0.00	29.704 
19:30	48.9	48.9	48.9	96	47.8	2	6	90	0.00	29.702 
19:35	48.9	48.9	48.9	96	47.8	2	5	90	0.00	29.702 
19:40	48.9	48.9	48.9	96	47.8	3	4	90	0.00	29.702 
19:45	49.1	49.1	49.1	96	48.0	3	9	90	0.00	29.701 
19:50	49.1	49.1	49.1	96	48.0	2	6	90	0.00	29.701 
19:55	49.1	49.1	49.1	96	48.0	1	5	112	0.00	29.701 
20:00	49.1	49.1	49.1	96	48.0	3	6	112	0.00	29.693 
20:05	49.1	49.1	49.1	96	48.0	3	6	90	0.00	29.693 
20:10	49.1	47.8	49.1	96	48.0	4	7	90	0.00	29.693 
20:15	49.1	47.8	49.1	96	48.0	4	10	90	0.00	29.692 
20:20	49.1	47.8	49.1	96	48.0	4	10	90	0.00	29.692 
20:25	49.2	49.2	49.2	96	48.1	3	6	90	0.00	29.692 
20:30	49.2	49.2	49.2	96	48.1	2	6	112	0.00	29.694 
20:35	49.2	49.2	49.2	96	48.1	2	5	112	0.00	29.694 
20:40	49.2	49.2	49.2	96	48.1	2	5	90	0.00	29.694 
20:45	49.2	49.2	49.2	96	48.1	3	6	90	0.00	29.695 
20:50	49.2	47.9	49.2	96	48.1	4	7	90	0.00	29.695 
20:55	49.2	49.2	49.2	96	48.1	3	5	90	0.00	29.695 
21:00	49.2	49.2	49.2	96	48.1	2	5	90	0.00	29.695 
21:05	49.1	49.1	49.1	96	48.0	3	9	112	0.00	29.695 
21:10	49.1	49.1	49.1	96	48.0	3	6	90	0.00	29.695 
21:15	49.1	49.1	49.1	96	48.0	2	6	90	0.00	29.693 
21:20	48.9	48.9	48.9	96	47.8	1	4	90	0.00	29.693 
21:25	48.8	48.8	48.8	96	47.7	3	10	90	0.00	29.693 
21:30	48.6	47.3	48.6	96	47.5	4	7	90	0.00	29.693 
21:35	48.6	48.6	48.6	96	47.5	3	5	90	0.00	29.693 
21:40	48.5	48.5	48.5	96	47.4	3	5	112	0.00	29.693 
21:45	48.3	48.3	48.3	96	47.2	3	7	90	0.00	29.689 
21:50	48.2	48.2	48.2	96	47.1	2	5	112	0.00	29.689 
21:55	48.0	48.0	48.0	96	46.9	2	6	90	0.00	29.689 
22:00	47.7	46.2	47.7	96	46.6	4	8	90	0.00	29.683 
22:05	47.6	47.6	47.6	96	46.5	3	7	90	0.00	29.683 
22:10	47.6	47.6	47.6	96	46.5	2	7	68	0.00	29.683 
22:15	47.6	47.6	47.6	96	46.5	2	7	90	0.00	29.684 
22:20	47.6	47.6	47.6	96	46.5	3	6	90	0.00	29.684 
22:25	47.6	47.6	47.6	96	46.5	1	5	90	0.00	29.684 
22:30	47.6	47.6	47.6	96	46.5	2	6	68	0.00	29.683 
22:35	47.6	47.6	47.6	96	46.5	2	4	68	0.00	29.683 
22:40	47.6	47.6	47.6	96	46.5	3	6	90	0.00	29.683 
22:45	47.4	47.4	47.4	96	46.3	1	5	135	0.00	29.680 
22:50	47.4	47.4	47.4	96	46.3	1	4	135	0.00	29.680 
22:55	47.3	47.3	47.3	96	46.2	2	6	90	0.00	29.680 
23:00	47.1	47.1	47.1	96	46.0	1	4	90	0.00	29.680 
23:05	47.1	47.1	47.1	96	46.0	2	5	90	0.00	29.680 
23:10	47.1	47.1	47.1	96	46.0	1	3	112	0.00	29.680 
23:15	47.1	47.1	47.1	96	46.0	2	5	90	0.00	29.679 
23:20	47.1	47.1	47.1	96	46.0	1	3	90	0.00	29.679 
23:25	47.1	47.1	47.1	96	46.0	1	3	90	0.00	29.679 
23:30	47.1	47.1	47.1	96	46.0	1	4	90	0.00	29.678 
23:35	47.0	47.0	47.0	96	45.9	2	4	90	0.00	29.678 
23:40	47.0	47.0	47.0	96	45.9	1	3	90	0.00	29.678 
23:45	47.0	47.0	47.0	96	45.9	1	3	90	0.00	29.674 
23:50	47.0	47.0	47.0	96	45.9	1	3	90	0.00	29.674 
23:55	47.0	47.0	47.0	96	45.9	1	3	90	0.00	29.674 

CoCoRaHS
IN-AL-39
A2 Web Hosting
Creative Commons License
GoDaddy
search engine by freefind advanced

loaded 2018-11-15 05:09:49 • last modified 2010-11-18 10:43:29
Privacy PolicyDisclaimer
• wx.awcolley.com is powered by PmWiki v.2002016 •
• all content (unless otherwise noted) © 2018 A W Colley